Nampa, ID

7:40 PM MST on December 15, 2019 (GMT -0700)
Nampa

Weather History for KMAN - October, 2019

Change the Weather History Date:

Sunday, October 13, 2019

  Actual Average (KBOI) Record (KBOI)
Temperature  
Mean Temperature 44 °F -  
Max Temperature 60 °F 65 °F 88 °F (1950)
Min Temperature 28 °F 40 °F 20 °F (1985)
Degree Days  
Heating Degree Days 21    
Moisture  
Dew Point 23 °F    
Average Humidity 49    
Maximum Humidity 75    
Minimum Humidity 23    
Precipitation  
Precipitation 0.00 in - - ()
Sea Level Pressure  
Sea Level Pressure 29.93 in    
Wind  
Wind Speed 1 mph (West)    
Max Wind Speed 7 mph    
Max Gust Speed -    
Visibility 10 miles    
Events      
Averages and records for this station are not official NWS values.
T = Trace of Precipitation, MM = Missing Value Source: NWS Daily Summary

Daily Weather History Graph

Daily Weather History Graph

Search for Another Location

Airport or City:

Astronomy

Oct. 13, 2019 Rise Set
Actual Time 7:57 AM MDT 7:06 PM MDT
Civil Twilight 7:28 AM MDT 7:35 PM MDT
Nautical Twilight 6:55 AM MDT 8:08 PM MDT
Astronomical Twilight 6:22 AM MDT 8:41 PM MDT
Moon 7:32 PM MDT (10/13) 7:33 AM MDT (10/13)
Length of Visible Light 12h 06m
Length of Day
11h 08m
Full, 100% of the Moon is Illuminated
Oct 13
Full
Oct 13
Full
Oct 21
Last Quarter
Oct 27
New
Nov 4
First Quarter

Hourly Weather History & Observations

Time (MDT) Temp. Windchill Dew Point Humidity Pressure Visibility Wind Dir Wind Speed Gust Speed Precip Events Conditions
12:15 AM 35.6 °F - 26.6 °F 70% 29.97 in 10.0 mi Calm Calm - N/A   Unknown
12:35 AM 33.8 °F - 24.8 °F 70% 29.96 in 10.0 mi Calm Calm - N/A   Unknown
12:55 AM 33.8 °F - 24.8 °F 70% 29.96 in 10.0 mi Calm Calm - N/A   Unknown
1:15 AM 33.8 °F - 26.6 °F 75% 29.96 in 10.0 mi Calm Calm - N/A   Unknown
1:35 AM 33.8 °F - 24.8 °F 70% 29.96 in 10.0 mi Calm Calm - N/A   Unknown
1:55 AM 32.0 °F - 23.0 °F 69% 29.97 in 10.0 mi Calm Calm - N/A   Unknown
2:15 AM 32.0 °F - 21.2 °F 64% 29.97 in 10.0 mi Calm Calm - N/A   Unknown
2:35 AM 30.2 °F - 23.0 °F 75% 29.97 in 10.0 mi Calm Calm - N/A   Clear
2:55 AM 30.2 °F - 21.2 °F 69% 29.97 in 10.0 mi Calm Calm - N/A   Clear
3:15 AM 30.2 °F - 21.2 °F 69% 29.97 in 10.0 mi Calm Calm - N/A   Clear
3:35 AM 30.2 °F - 21.2 °F 69% 29.97 in 10.0 mi Calm Calm - N/A   Partly Cloudy
3:55 AM 28.4 °F - 21.2 °F 74% 29.97 in 10.0 mi Calm Calm - N/A   Partly Cloudy
4:15 AM 30.2 °F - 19.4 °F 64% 29.97 in 10.0 mi Calm Calm - N/A   Scattered Clouds
4:35 AM 28.4 °F - 19.4 °F 69% 29.96 in 10.0 mi Calm Calm - N/A   Scattered Clouds
4:55 AM 30.2 °F 26.7 °F 19.4 °F 64% 29.96 in 10.0 mi SE 3.5 mph - N/A   Scattered Clouds
5:15 AM 28.4 °F 24.6 °F 19.4 °F 69% 29.96 in 10.0 mi SE 3.5 mph - N/A   Unknown
5:35 AM 28.4 °F 24.6 °F 19.4 °F 69% 29.96 in 10.0 mi SE 3.5 mph - N/A   Unknown
5:55 AM 28.4 °F 23.3 °F 17.6 °F 64% 29.96 in 10.0 mi SE 4.6 mph - N/A   Unknown
6:15 AM 28.4 °F 24.6 °F 17.6 °F 64% 29.96 in 10.0 mi SE 3.5 mph - N/A   Unknown
6:35 AM 30.2 °F - 17.6 °F 60% 29.97 in 10.0 mi Calm Calm - N/A   Unknown
6:55 AM 28.4 °F 22.2 °F 17.6 °F 64% 29.97 in 10.0 mi SE 5.8 mph - N/A   Unknown
7:15 AM 30.2 °F 26.7 °F 17.6 °F 60% 29.98 in 10.0 mi SSE 3.5 mph - N/A   Unknown
7:35 AM 30.2 °F - 17.6 °F 60% 29.98 in 10.0 mi Calm Calm - N/A   Mostly Cloudy
7:55 AM 32.0 °F 25.6 °F 17.6 °F 55% 29.97 in 10.0 mi SE 6.9 mph - N/A   Partly Cloudy
8:15 AM 32.0 °F 27.5 °F 15.8 °F 51% 29.98 in 10.0 mi SE 4.6 mph - N/A   Clear
8:35 AM 32.0 °F - 17.6 °F 55% 29.98 in 10.0 mi Calm Calm - N/A   Clear
9:15 AM 35.6 °F - 17.6 °F 48% 29.98 in 10.0 mi Calm Calm - N/A   Clear
9:35 AM 37.4 °F - 19.4 °F 48% 29.98 in 10.0 mi Calm Calm - N/A   Clear
9:55 AM 39.2 °F - 19.4 °F 45% 29.99 in 10.0 mi Calm Calm - N/A   Clear
10:15 AM 41.0 °F - 21.2 °F 45% 29.99 in 10.0 mi Calm Calm - N/A   Clear
10:35 AM 42.8 °F 40.1 °F 21.2 °F 42% 29.99 in 10.0 mi SW 4.6 mph - N/A   Clear
10:55 AM 44.6 °F - 21.2 °F 39% 29.98 in 10.0 mi Calm Calm - N/A   Clear
11:15 AM 46.4 °F - 21.2 °F 37% 29.98 in 10.0 mi Calm Calm - N/A   Clear
11:35 AM 48.2 °F - 23.0 °F 37% 29.98 in 10.0 mi Calm Calm - N/A   Clear
11:55 AM 50.0 °F - 23.0 °F 35% 29.97 in 10.0 mi WSW 4.6 mph - N/A   Clear
12:15 PM 51.8 °F - 23.0 °F 33% 29.96 in 10.0 mi Variable 3.5 mph - N/A   Clear
12:35 PM 51.8 °F - 23.0 °F 33% 29.96 in 10.0 mi WNW 4.6 mph - N/A   Clear
12:55 PM 53.6 °F - 23.0 °F 30% 29.95 in 10.0 mi Calm Calm - N/A   Clear
1:15 PM 55.4 °F - 23.0 °F 29% 29.95 in 10.0 mi Calm Calm - N/A   Clear
1:35 PM 55.4 °F - 23.0 °F 29% 29.93 in 10.0 mi Calm Calm - N/A   Clear
1:55 PM 57.2 °F - 23.0 °F 27% 29.92 in 10.0 mi Calm Calm - N/A   Clear
2:15 PM 57.2 °F - 23.0 °F 27% 29.91 in 10.0 mi Variable 3.5 mph - N/A   Clear
2:35 PM 57.2 °F - 23.0 °F 27% 29.90 in 10.0 mi WNW 6.9 mph - N/A   Clear
2:55 PM 57.2 °F - 23.0 °F 27% 29.90 in 10.0 mi Variable 4.6 mph - N/A   Clear
3:15 PM 57.2 °F - 24.8 °F 29% 29.89 in 10.0 mi NNW 4.6 mph - N/A   Clear
3:35 PM 57.2 °F - 24.8 °F 29% 29.88 in 10.0 mi NW 4.6 mph - N/A   Clear
3:55 PM 59.0 °F - 23.0 °F 25% 29.87 in 10.0 mi NNW 5.8 mph - N/A   Clear
4:15 PM 59.0 °F - 23.0 °F 25% 29.87 in 10.0 mi Variable 3.5 mph - N/A   Clear
4:35 PM 60.8 °F - 23.0 °F 23% 29.87 in 10.0 mi Variable 4.6 mph - N/A   Clear
4:55 PM 60.8 °F - 23.0 °F 23% 29.87 in 10.0 mi WNW 3.5 mph - N/A   Clear
5:15 PM 60.8 °F - 23.0 °F 23% 29.87 in 10.0 mi Calm Calm - N/A   Clear
5:35 PM 60.8 °F - 23.0 °F 23% 29.86 in 10.0 mi NW 3.5 mph - N/A   Clear
5:55 PM 59.0 °F - 24.8 °F 27% 29.86 in 10.0 mi NNW 6.9 mph - N/A   Clear
6:15 PM 59.0 °F - 24.8 °F 27% 29.86 in 10.0 mi NNW 4.6 mph - N/A   Clear
6:35 PM 57.2 °F - 24.8 °F 29% 29.86 in 10.0 mi NW 3.5 mph - N/A   Clear
6:55 PM 57.2 °F - 26.6 °F 31% 29.86 in 10.0 mi Calm Calm - N/A   Clear
7:15 PM 57.2 °F - 26.6 °F 31% 29.86 in 10.0 mi North 3.5 mph - N/A   Clear
7:35 PM 53.6 °F - 26.6 °F 35% 29.87 in 10.0 mi Calm Calm - N/A   Clear
7:55 PM 53.6 °F - 26.6 °F 35% 29.87 in 10.0 mi Calm Calm - N/A   Unknown
8:15 PM 48.2 °F - 28.4 °F 46% 29.87 in 10.0 mi Calm Calm - N/A   Unknown
8:35 PM 50.0 °F - 28.4 °F 43% 29.87 in 10.0 mi Calm Calm - N/A   Unknown
8:55 PM 46.4 °F - 28.4 °F 50% 29.87 in 10.0 mi Calm Calm - N/A   Clear
9:15 PM 44.6 °F - 28.4 °F 53% 29.88 in 10.0 mi Calm Calm - N/A   Clear
9:35 PM 42.8 °F - 30.2 °F 61% 29.88 in 10.0 mi Calm Calm - N/A   Unknown
9:55 PM 42.8 °F - 28.4 °F 57% 29.89 in 10.0 mi Calm Calm - N/A   Unknown
10:15 PM 41.0 °F - 28.4 °F 61% 29.89 in 10.0 mi Calm Calm - N/A   Unknown
10:35 PM 37.4 °F - 28.4 °F 70% 29.90 in 10.0 mi Calm Calm - N/A   Clear
10:55 PM 39.2 °F - 30.2 °F 70% 29.90 in 10.0 mi Calm Calm - N/A   Clear
11:15 PM 37.4 °F - 30.2 °F 75% 29.90 in 10.0 mi Calm Calm - N/A   Clear
11:35 PM 41.0 °F - 30.2 °F 65% 29.91 in 8.0 mi Calm Calm - N/A   Partly Cloudy
11:55 PM 35.6 °F - 28.4 °F 75% 29.91 in 10.0 mi Calm Calm - N/A   Partly Cloudy